sensor_id;sensor_type;location;lat;lon;timestamp;pressure;altitude;pressure_sealevel;temperature;humidity
72226;BME280;60130;52.250;5.048;2023-07-24T00:00:00;1004.5;;;19.2;79.4
72226;BME280;60130;52.250;5.048;2023-07-24T00:05:00;1004.4;;;19.2;79.4
72226;BME280;60130;52.250;5.048;2023-07-24T00:10:00;1004.4;;;19.0;79.5
72226;BME280;60130;52.250;5.048;2023-07-24T00:15:00;1004.5;;;19.0;79.6
72226;BME280;60130;52.250;5.048;2023-07-24T00:20:00;1004.4;;;18.9;79.6
72226;BME280;60130;52.250;5.048;2023-07-24T00:25:00;1004.4;;;18.7;79.8
72226;BME280;60130;52.250;5.048;2023-07-24T00:30:00;1004.3;;;18.6;80.0
72226;BME280;60130;52.250;5.048;2023-07-24T00:35:00;1004.2;;;18.5;80.0
72226;BME280;60130;52.250;5.048;2023-07-24T00:40:00;1004.2;;;18.4;80.3
72226;BME280;60130;52.250;5.048;2023-07-24T00:45:00;1004.1;;;18.2;80.8
72226;BME280;60130;52.250;5.048;2023-07-24T00:50:00;1004.0;;;18.2;80.9
72226;BME280;60130;52.250;5.048;2023-07-24T00:55:00;1004.0;;;18.1;81.4
72226;BME280;60130;52.250;5.048;2023-07-24T01:00:00;1004.0;;;18.2;81.2
72226;BME280;60130;52.250;5.048;2023-07-24T01:05:01;1003.9;;;18.1;81.2
72226;BME280;60130;52.250;5.048;2023-07-24T01:10:00;1003.9;;;18.1;81.1
72226;BME280;60130;52.250;5.048;2023-07-24T01:15:05;1003.9;;;18.1;81.1
72226;BME280;60130;52.250;5.048;2023-07-24T01:20:01;1003.9;;;18.1;80.9
72226;BME280;60130;52.250;5.048;2023-07-24T01:25:05;1004.0;;;18.3;80.7
72226;BME280;60130;52.250;5.048;2023-07-24T01:30:00;1004.0;;;18.3;80.7
72226;BME280;60130;52.250;5.048;2023-07-24T01:35:00;1004.0;;;18.4;80.7
72226;BME280;60130;52.250;5.048;2023-07-24T01:40:00;1003.9;;;18.5;81.2
72226;BME280;60130;52.250;5.048;2023-07-24T01:45:02;1003.8;;;18.6;81.4
72226;BME280;60130;52.250;5.048;2023-07-24T01:50:00;1003.7;;;18.5;82.1
72226;BME280;60130;52.250;5.048;2023-07-24T01:55:00;1003.7;;;18.6;82.1
72226;BME280;60130;52.250;5.048;2023-07-24T02:00:00;1003.7;;;18.6;81.9
72226;BME280;60130;52.250;5.048;2023-07-24T02:05:00;1003.7;;;18.4;82.5
72226;BME280;60130;52.250;5.048;2023-07-24T02:10:00;1003.7;;;18.3;82.9
72226;BME280;60130;52.250;5.048;2023-07-24T02:15:00;1003.6;;;18.2;82.9
72226;BME280;60130;52.250;5.048;2023-07-24T02:20:00;1003.5;;;18.2;82.8
72226;BME280;60130;52.250;5.048;2023-07-24T02:25:00;1003.5;;;18.3;82.8
72226;BME280;60130;52.250;5.048;2023-07-24T02:30:00;1003.4;;;18.2;83.3
72226;BME280;60130;52.250;5.048;2023-07-24T02:35:00;1003.3;;;18.3;82.9
72226;BME280;60130;52.250;5.048;2023-07-24T02:40:00;1003.3;;;18.2;83.1
72226;BME280;60130;52.250;5.048;2023-07-24T02:45:00;1003.3;;;18.2;83.4
72226;BME280;60130;52.250;5.048;2023-07-24T02:50:00;1003.3;;;18.1;83.6
72226;BME280;60130;52.250;5.048;2023-07-24T02:55:00;1003.4;;;18.1;84.2
72226;BME280;60130;52.250;5.048;2023-07-24T03:00:00;1003.4;;;18.1;84.3
72226;BME280;60130;52.250;5.048;2023-07-24T03:05:00;1003.3;;;18.2;84.0
72226;BME280;60130;52.250;5.048;2023-07-24T03:10:00;1003.3;;;18.1;84.0
72226;BME280;60130;52.250;5.048;2023-07-24T03:15:00;1003.2;;;18.1;84.0
72226;BME280;60130;52.250;5.048;2023-07-24T03:20:08;1003.2;;;18.1;83.7
72226;BME280;60130;52.250;5.048;2023-07-24T03:25:00;1003.2;;;18.1;83.6
72226;BME280;60130;52.250;5.048;2023-07-24T03:30:00;1002.9;;;18.1;83.4
72226;BME280;60130;52.250;5.048;2023-07-24T03:35:00;1003.2;;;18.2;82.9
72226;BME280;60130;52.250;5.048;2023-07-24T03:40:00;1003.0;;;18.2;82.5
72226;BME280;60130;52.250;5.048;2023-07-24T03:45:00;1003.0;;;18.2;82.4
72226;BME280;60130;52.250;5.048;2023-07-24T03:50:00;1003.1;;;18.2;82.6
72226;BME280;60130;52.250;5.048;2023-07-24T03:55:01;1003.2;;;18.0;82.8
72226;BME280;60130;52.250;5.048;2023-07-24T04:00:00;1003.2;;;18.0;82.3
72226;BME280;60130;52.250;5.048;2023-07-24T04:05:00;1003.1;;;18.0;82.0
72226;BME280;60130;52.250;5.048;2023-07-24T04:10:00;1003.1;;;18.0;82.2
72226;BME280;60130;52.250;5.048;2023-07-24T04:15:00;1003.1;;;18.0;82.1
72226;BME280;60130;52.250;5.048;2023-07-24T04:20:00;1002.9;;;18.0;81.8
72226;BME280;60130;52.250;5.048;2023-07-24T04:25:00;1003.0;;;17.9;82.1
72226;BME280;60130;52.250;5.048;2023-07-24T04:30:00;1003.0;;;17.9;81.9
72226;BME280;60130;52.250;5.048;2023-07-24T04:35:00;1003.0;;;17.8;82.2
72226;BME280;60130;52.250;5.048;2023-07-24T04:40:00;1002.9;;;17.8;82.3
72226;BME280;60130;52.250;5.048;2023-07-24T04:45:00;1002.9;;;17.6;82.7
72226;BME280;60130;52.250;5.048;2023-07-24T04:50:00;1003.0;;;17.6;83.2
72226;BME280;60130;52.250;5.048;2023-07-24T04:55:00;1003.0;;;17.7;82.9
72226;BME280;60130;52.250;5.048;2023-07-24T05:00:00;1003.0;;;17.9;82.6
72226;BME280;60130;52.250;5.048;2023-07-24T05:05:00;1003.2;;;17.9;82.5
72226;BME280;60130;52.250;5.048;2023-07-24T05:10:00;1003.1;;;18.0;82.4
72226;BME280;60130;52.250;5.048;2023-07-24T05:15:00;1003.1;;;18.2;82.1
72226;BME280;60130;52.250;5.048;2023-07-24T05:20:00;1003.1;;;18.3;81.9
72226;BME280;60130;52.250;5.048;2023-07-24T05:25:00;1003.1;;;18.5;81.3
72226;BME280;60130;52.250;5.048;2023-07-24T05:30:00;1003.1;;;18.7;80.8
72226;BME280;60130;52.250;5.048;2023-07-24T05:35:00;1003.1;;;18.9;79.7
72226;BME280;60130;52.250;5.048;2023-07-24T05:40:00;1003.1;;;19.1;79.6
72226;BME280;60130;52.250;5.048;2023-07-24T05:45:00;1003.0;;;19.1;79.0
72226;BME280;60130;52.250;5.048;2023-07-24T05:50:00;1003.1;;;18.8;79.5
72226;BME280;60130;52.250;5.048;2023-07-24T05:55:00;1003.0;;;18.8;79.2
72226;BME280;60130;52.250;5.048;2023-07-24T06:00:00;1003.2;;;19.0;78.8
72226;BME280;60130;52.250;5.048;2023-07-24T06:05:00;1003.2;;;19.0;79.0
72226;BME280;60130;52.250;5.048;2023-07-24T06:10:00;1003.1;;;19.3;78.6
72226;BME280;60130;52.250;5.048;2023-07-24T06:15:00;1003.2;;;19.4;77.9
72226;BME280;60130;52.250;5.048;2023-07-24T06:20:00;1003.2;;;19.4;77.6
72226;BME280;60130;52.250;5.048;2023-07-24T06:25:00;1003.2;;;19.5;77.4
72226;BME280;60130;52.250;5.048;2023-07-24T06:30:00;1003.3;;;19.4;77.4
72226;BME280;60130;52.250;5.048;2023-07-24T06:35:00;1003.3;;;19.6;77.4
72226;BME280;60130;52.250;5.048;2023-07-24T06:40:00;1003.2;;;19.9;76.0
72226;BME280;60130;52.250;5.048;2023-07-24T06:45:00;1003.2;;;20.0;75.9
72226;BME280;60130;52.250;5.048;2023-07-24T06:50:00;1003.3;;;21.3;71.6
72226;BME280;60130;52.250;5.048;2023-07-24T06:55:00;1003.3;;;21.8;69.3
72226;BME280;60130;52.250;5.048;2023-07-24T07:00:00;1003.4;;;22.2;68.8
72226;BME280;60130;52.250;5.048;2023-07-24T07:05:00;1003.3;;;23.6;65.1
72226;BME280;60130;52.250;5.048;2023-07-24T07:10:00;1003.3;;;22.3;66.8
72226;BME280;60130;52.250;5.048;2023-07-24T07:15:00;1003.4;;;23.3;64.0
72226;BME280;60130;52.250;5.048;2023-07-24T07:20:00;1003.2;;;22.8;64.0
72226;BME280;60130;52.250;5.048;2023-07-24T07:25:00;1003.3;;;23.3;63.0
72226;BME280;60130;52.250;5.048;2023-07-24T07:30:00;1003.3;;;23.6;62.1
72226;BME280;60130;52.250;5.048;2023-07-24T07:35:00;1003.3;;;23.5;62.1
72226;BME280;60130;52.250;5.048;2023-07-24T07:40:00;1003.3;;;23.8;61.2
72226;BME280;60130;52.250;5.048;2023-07-24T07:45:00;1003.1;;;21.5;65.9
72226;BME280;60130;52.250;5.048;2023-07-24T07:50:00;1003.0;;;21.6;66.5
72226;BME280;60130;52.250;5.048;2023-07-24T07:55:00;1003.0;;;22.0;65.8
72226;BME280;60130;52.250;5.048;2023-07-24T08:00:00;1003.0;;;23.5;61.9
72226;BME280;60130;52.250;5.048;2023-07-24T08:05:00;1003.0;;;23.4;62.1
72226;BME280;60130;52.250;5.048;2023-07-24T08:10:00;1002.9;;;22.4;64.5
72226;BME280;60130;52.250;5.048;2023-07-24T08:15:00;1002.9;;;21.9;65.4
72226;BME280;60130;52.250;5.048;2023-07-24T08:20:00;1002.9;;;22.3;65.7
72226;BME280;60130;52.250;5.048;2023-07-24T08:25:00;1002.9;;;22.1;65.9
72226;BME280;60130;52.250;5.048;2023-07-24T08:30:00;1003.0;;;21.4;66.0
72226;BME280;60130;52.250;5.048;2023-07-24T08:35:00;1003.1;;;22.0;65.2
72226;BME280;60130;52.250;5.048;2023-07-24T08:40:00;1002.9;;;22.1;64.6
72226;BME280;60130;52.250;5.048;2023-07-24T08:45:00;1002.9;;;22.1;65.3
72226;BME280;60130;52.250;5.048;2023-07-24T08:50:00;1003.1;;;22.3;65.5
72226;BME280;60130;52.250;5.048;2023-07-24T08:55:01;1003.0;;;22.8;65.1
72226;BME280;60130;52.250;5.048;2023-07-24T09:00:00;1002.9;;;22.9;65.8
72226;BME280;60130;52.250;5.048;2023-07-24T09:05:00;1002.8;;;23.6;64.3
72226;BME280;60130;52.250;5.048;2023-07-24T09:10:00;1002.9;;;23.0;66.0
72226;BME280;60130;52.250;5.048;2023-07-24T09:15:01;1002.9;;;22.2;66.5
72226;BME280;60130;52.250;5.048;2023-07-24T09:20:00;1002.9;;;21.9;66.8
72226;BME280;60130;52.250;5.048;2023-07-24T09:25:00;1002.8;;;21.6;67.6
72226;BME280;60130;52.250;5.048;2023-07-24T09:30:00;1002.8;;;21.8;68.0
72226;BME280;60130;52.250;5.048;2023-07-24T09:35:00;1002.8;;;21.6;67.8
72226;BME280;60130;52.250;5.048;2023-07-24T09:40:03;1002.7;;;21.4;68.7
72226;BME280;60130;52.250;5.048;2023-07-24T09:45:00;1002.6;;;22.1;67.1
72226;BME280;60130;52.250;5.048;2023-07-24T09:50:02;1002.5;;;22.0;66.5
72226;BME280;60130;52.250;5.048;2023-07-24T09:55:05;1002.6;;;21.7;67.2
72226;BME280;60130;52.250;5.048;2023-07-24T10:00:00;1002.7;;;21.8;68.0
72226;BME280;60130;52.250;5.048;2023-07-24T10:05:00;1002.5;;;23.0;65.0
72226;BME280;60130;52.250;5.048;2023-07-24T10:10:01;1002.5;;;22.9;65.1
72226;BME280;60130;52.250;5.048;2023-07-24T10:15:01;1002.7;;;22.2;67.9
72226;BME280;60130;52.250;5.048;2023-07-24T10:20:03;1002.7;;;21.4;69.8
72226;BME280;60130;52.250;5.048;2023-07-24T10:25:00;1002.6;;;22.1;69.9
72226;BME280;60130;52.250;5.048;2023-07-24T10:30:00;1002.6;;;22.6;66.6
72226;BME280;60130;52.250;5.048;2023-07-24T10:35:07;1002.6;;;22.2;66.8
72226;BME280;60130;52.250;5.048;2023-07-24T10:40:00;1002.5;;;22.5;67.6
72226;BME280;60130;52.250;5.048;2023-07-24T10:45:04;1002.4;;;22.6;64.1
72226;BME280;60130;52.250;5.048;2023-07-24T10:50:00;1002.4;;;22.2;66.1
72226;BME280;60130;52.250;5.048;2023-07-24T10:55:01;1002.5;;;22.1;67.2
72226;BME280;60130;52.250;5.048;2023-07-24T11:00:00;1002.5;;;22.1;66.9
72226;BME280;60130;52.250;5.048;2023-07-24T11:05:00;1002.6;;;22.1;66.4
72226;BME280;60130;52.250;5.048;2023-07-24T11:10:00;1002.5;;;22.0;64.7
72226;BME280;60130;52.250;5.048;2023-07-24T11:15:00;1002.6;;;21.8;66.0
72226;BME280;60130;52.250;5.048;2023-07-24T11:20:05;1002.5;;;21.9;66.2
72226;BME280;60130;52.250;5.048;2023-07-24T11:25:00;1002.5;;;22.5;65.8
72226;BME280;60130;52.250;5.048;2023-07-24T11:30:00;1002.6;;;23.4;61.5
72226;BME280;60130;52.250;5.048;2023-07-24T11:35:00;1002.6;;;24.3;58.9
72226;BME280;60130;52.250;5.048;2023-07-24T11:40:02;1002.6;;;22.8;61.8
72226;BME280;60130;52.250;5.048;2023-07-24T11:45:01;1002.6;;;22.7;63.2
72226;BME280;60130;52.250;5.048;2023-07-24T11:50:01;1002.6;;;22.7;63.5
72226;BME280;60130;52.250;5.048;2023-07-24T11:55:00;1002.7;;;22.2;65.9
72226;BME280;60130;52.250;5.048;2023-07-24T12:00:00;1002.7;;;23.1;64.9
72226;BME280;60130;52.250;5.048;2023-07-24T12:05:00;1002.7;;;23.1;63.8
72226;BME280;60130;52.250;5.048;2023-07-24T12:10:01;1002.8;;;23.0;65.3
72226;BME280;60130;52.250;5.048;2023-07-24T12:15:00;1002.8;;;23.1;65.5
72226;BME280;60130;52.250;5.048;2023-07-24T12:20:00;1002.7;;;23.2;63.7
72226;BME280;60130;52.250;5.048;2023-07-24T12:25:00;1002.7;;;23.8;61.4
72226;BME280;60130;52.250;5.048;2023-07-24T12:30:00;1002.6;;;23.9;60.7
72226;BME280;60130;52.250;5.048;2023-07-24T12:35:00;1002.7;;;23.1;61.8
72226;BME280;60130;52.250;5.048;2023-07-24T12:40:00;1002.8;;;23.2;62.7
72226;BME280;60130;52.250;5.048;2023-07-24T12:45:00;1002.8;;;23.3;62.9
72226;BME280;60130;52.250;5.048;2023-07-24T12:50:00;1002.8;;;22.7;62.5
72226;BME280;60130;52.250;5.048;2023-07-24T12:55:00;1002.8;;;23.5;62.2
72226;BME280;60130;52.250;5.048;2023-07-24T13:00:00;1002.8;;;23.2;62.2
72226;BME280;60130;52.250;5.048;2023-07-24T13:05:00;1002.8;;;22.5;64.1
72226;BME280;60130;52.250;5.048;2023-07-24T13:10:00;1002.9;;;22.5;63.3
72226;BME280;60130;52.250;5.048;2023-07-24T13:15:00;1002.9;;;22.6;62.7
72226;BME280;60130;52.250;5.048;2023-07-24T13:20:00;1002.9;;;22.9;62.5
72226;BME280;60130;52.250;5.048;2023-07-24T13:25:00;1003.0;;;22.6;62.6
72226;BME280;60130;52.250;5.048;2023-07-24T13:30:00;1003.0;;;22.4;62.6
72226;BME280;60130;52.250;5.048;2023-07-24T13:35:00;1003.0;;;22.3;63.1
72226;BME280;60130;52.250;5.048;2023-07-24T13:40:00;1003.0;;;22.4;62.1
72226;BME280;60130;52.250;5.048;2023-07-24T13:45:00;1002.9;;;22.4;62.5
72226;BME280;60130;52.250;5.048;2023-07-24T13:50:00;1002.9;;;22.9;60.9
72226;BME280;60130;52.250;5.048;2023-07-24T13:55:00;1002.9;;;22.1;62.3
72226;BME280;60130;52.250;5.048;2023-07-24T14:00:00;1003.1;;;21.6;63.2
72226;BME280;60130;52.250;5.048;2023-07-24T14:05:00;1003.1;;;22.2;61.8
72226;BME280;60130;52.250;5.048;2023-07-24T14:10:00;1003.1;;;22.0;62.7
72226;BME280;60130;52.250;5.048;2023-07-24T14:15:00;1003.2;;;21.8;62.6
72226;BME280;60130;52.250;5.048;2023-07-24T14:20:00;1003.3;;;22.6;60.6
72226;BME280;60130;52.250;5.048;2023-07-24T14:25:00;1003.4;;;23.1;60.5
72226;BME280;60130;52.250;5.048;2023-07-24T14:30:00;1003.5;;;23.4;58.2
72226;BME280;60130;52.250;5.048;2023-07-24T14:35:00;1003.5;;;23.6;57.4
72226;BME280;60130;52.250;5.048;2023-07-24T14:40:00;1003.6;;;23.3;58.4
72226;BME280;60130;52.250;5.048;2023-07-24T14:45:00;1003.7;;;22.6;61.1
72226;BME280;60130;52.250;5.048;2023-07-24T14:50:00;1003.8;;;21.4;64.0
72226;BME280;60130;52.250;5.048;2023-07-24T14:55:00;1003.8;;;21.3;63.5
72226;BME280;60130;52.250;5.048;2023-07-24T15:00:00;1003.9;;;21.0;64.7
72226;BME280;60130;52.250;5.048;2023-07-24T15:05:00;1003.9;;;20.4;66.3
72226;BME280;60130;52.250;5.048;2023-07-24T15:10:00;1004.0;;;19.8;68.7
72226;BME280;60130;52.250;5.048;2023-07-24T15:15:00;1004.0;;;19.5;69.8
72226;BME280;60130;52.250;5.048;2023-07-24T15:20:00;1004.1;;;19.8;69.2
72226;BME280;60130;52.250;5.048;2023-07-24T15:25:00;1004.1;;;19.8;67.8
72226;BME280;60130;52.250;5.048;2023-07-24T15:30:00;1004.2;;;19.7;67.6
72226;BME280;60130;52.250;5.048;2023-07-24T15:35:00;1004.3;;;19.7;67.9
72226;BME280;60130;52.250;5.048;2023-07-24T15:40:00;1004.4;;;19.7;66.9
72226;BME280;60130;52.250;5.048;2023-07-24T15:45:00;1004.4;;;19.1;68.4
72226;BME280;60130;52.250;5.048;2023-07-24T15:50:00;1004.5;;;18.7;69.9
72226;BME280;60130;52.250;5.048;2023-07-24T15:55:00;1004.6;;;18.9;69.6
72226;BME280;60130;52.250;5.048;2023-07-24T16:00:00;1004.7;;;18.8;69.6
72226;BME280;60130;52.250;5.048;2023-07-24T16:05:03;1004.7;;;18.8;70.0
72226;BME280;60130;52.250;5.048;2023-07-24T16:10:00;1004.6;;;18.7;70.5
72226;BME280;60130;52.250;5.048;2023-07-24T16:15:00;1004.7;;;18.7;69.8
72226;BME280;60130;52.250;5.048;2023-07-24T16:20:00;1004.8;;;18.9;69.7
72226;BME280;60130;52.250;5.048;2023-07-24T16:25:01;1004.8;;;19.0;68.8
72226;BME280;60130;52.250;5.048;2023-07-24T16:30:00;1004.8;;;19.1;67.6
72226;BME280;60130;52.250;5.048;2023-07-24T16:35:00;1004.9;;;19.1;67.2
72226;BME280;60130;52.250;5.048;2023-07-24T16:40:00;1004.9;;;19.0;66.8
72226;BME280;60130;52.250;5.048;2023-07-24T16:45:00;1005.0;;;19.2;65.5
72226;BME280;60130;52.250;5.048;2023-07-24T16:50:00;1005.0;;;19.4;65.9
72226;BME280;60130;52.250;5.048;2023-07-24T16:55:00;1005.1;;;19.2;65.8
72226;BME280;60130;52.250;5.048;2023-07-24T17:00:00;1005.2;;;19.4;66.2
72226;BME280;60130;52.250;5.048;2023-07-24T17:05:00;1005.1;;;20.6;62.6
72226;BME280;60130;52.250;5.048;2023-07-24T17:10:00;1005.2;;;20.1;62.7
72226;BME280;60130;52.250;5.048;2023-07-24T17:15:00;1005.1;;;19.6;63.5
72226;BME280;60130;52.250;5.048;2023-07-24T17:20:00;1005.2;;;19.7;63.7
72226;BME280;60130;52.250;5.048;2023-07-24T17:25:00;1005.3;;;19.7;63.4
72226;BME280;60130;52.250;5.048;2023-07-24T17:30:00;1005.4;;;19.5;63.6
72226;BME280;60130;52.250;5.048;2023-07-24T17:35:00;1005.4;;;19.2;64.0
72226;BME280;60130;52.250;5.048;2023-07-24T17:40:00;1005.6;;;18.6;67.1
72226;BME280;60130;52.250;5.048;2023-07-24T17:45:00;1005.7;;;18.3;67.7
72226;BME280;60130;52.250;5.048;2023-07-24T17:50:00;1005.8;;;18.4;68.3
72226;BME280;60130;52.250;5.048;2023-07-24T17:55:00;1005.8;;;18.3;67.6
72226;BME280;60130;52.250;5.048;2023-07-24T18:00:00;1005.9;;;18.3;67.9
72226;BME280;60130;52.250;5.048;2023-07-24T18:05:00;1006.0;;;18.0;68.5
72226;BME280;60130;52.250;5.048;2023-07-24T18:10:00;1006.0;;;17.7;66.8
72226;BME280;60130;52.250;5.048;2023-07-24T18:15:00;1006.0;;;17.8;67.1
72226;BME280;60130;52.250;5.048;2023-07-24T18:20:00;1006.0;;;17.7;67.0
72226;BME280;60130;52.250;5.048;2023-07-24T18:25:00;1006.1;;;17.8;66.5
72226;BME280;60130;52.250;5.048;2023-07-24T18:30:00;1006.1;;;18.0;66.4
72226;BME280;60130;52.250;5.048;2023-07-24T18:35:00;1006.1;;;18.1;65.7
72226;BME280;60130;52.250;5.048;2023-07-24T18:40:00;1006.2;;;18.2;64.5
72226;BME280;60130;52.250;5.048;2023-07-24T18:45:00;1006.2;;;19.0;61.9
72226;BME280;60130;52.250;5.048;2023-07-24T18:50:00;1006.3;;;18.9;62.2
72226;BME280;60130;52.250;5.048;2023-07-24T18:55:00;1006.3;;;18.8;62.2
72226;BME280;60130;52.250;5.048;2023-07-24T19:00:00;1006.4;;;18.6;62.9
72226;BME280;60130;52.250;5.048;2023-07-24T19:05:00;1006.4;;;18.5;62.9
72226;BME280;60130;52.250;5.048;2023-07-24T19:10:00;1006.5;;;18.3;63.6
72226;BME280;60130;52.250;5.048;2023-07-24T19:15:00;1006.5;;;18.2;63.8
72226;BME280;60130;52.250;5.048;2023-07-24T19:20:00;1006.6;;;18.0;64.8
72226;BME280;60130;52.250;5.048;2023-07-24T19:25:00;1006.6;;;17.8;65.5
72226;BME280;60130;52.250;5.048;2023-07-24T19:30:00;1006.6;;;17.8;66.0
72226;BME280;60130;52.250;5.048;2023-07-24T19:35:00;1006.7;;;17.7;66.2
72226;BME280;60130;52.250;5.048;2023-07-24T19:40:00;1006.8;;;17.5;66.9
72226;BME280;60130;52.250;5.048;2023-07-24T19:45:00;1006.8;;;17.2;67.1
72226;BME280;60130;52.250;5.048;2023-07-24T19:50:00;1006.8;;;16.9;67.0
72226;BME280;60130;52.250;5.048;2023-07-24T19:55:00;1006.9;;;16.8;67.4
72226;BME280;60130;52.250;5.048;2023-07-24T20:00:00;1007.0;;;16.8;67.6
72226;BME280;60130;52.250;5.048;2023-07-24T20:05:00;1007.0;;;16.6;68.5
72226;BME280;60130;52.250;5.048;2023-07-24T20:10:00;1007.1;;;16.5;69.0
72226;BME280;60130;52.250;5.048;2023-07-24T20:15:00;1007.2;;;16.4;69.5
72226;BME280;60130;52.250;5.048;2023-07-24T20:20:00;1007.2;;;16.3;70.0
72226;BME280;60130;52.250;5.048;2023-07-24T20:25:00;1007.3;;;16.2;70.4
72226;BME280;60130;52.250;5.048;2023-07-24T20:30:00;1007.4;;;16.1;70.8
72226;BME280;60130;52.250;5.048;2023-07-24T20:35:00;1007.4;;;16.1;71.1
72226;BME280;60130;52.250;5.048;2023-07-24T20:40:00;1007.4;;;16.0;71.3
72226;BME280;60130;52.250;5.048;2023-07-24T20:45:00;1007.4;;;15.9;71.6
72226;BME280;60130;52.250;5.048;2023-07-24T20:50:00;1007.4;;;15.8;71.6
72226;BME280;60130;52.250;5.048;2023-07-24T20:55:00;1007.5;;;15.8;71.5
72226;BME280;60130;52.250;5.048;2023-07-24T21:00:00;1007.5;;;15.8;71.5
72226;BME280;60130;52.250;5.048;2023-07-24T21:05:00;1007.6;;;15.7;72.3
72226;BME280;60130;52.250;5.048;2023-07-24T21:10:00;1007.7;;;15.6;72.4
72226;BME280;60130;52.250;5.048;2023-07-24T21:15:00;1007.6;;;15.4;72.4
72226;BME280;60130;52.250;5.048;2023-07-24T21:20:00;1007.6;;;15.2;72.7
72226;BME280;60130;52.250;5.048;2023-07-24T21:25:01;1007.5;;;15.1;73.8
72226;BME280;60130;52.250;5.048;2023-07-24T21:30:00;1007.5;;;14.9;74.4
72226;BME280;60130;52.250;5.048;2023-07-24T21:35:00;1007.5;;;14.8;75.1
72226;BME280;60130;52.250;5.048;2023-07-24T21:40:00;1007.5;;;14.8;75.2
72226;BME280;60130;52.250;5.048;2023-07-24T21:45:00;1007.5;;;14.7;75.8
72226;BME280;60130;52.250;5.048;2023-07-24T21:50:00;1007.5;;;14.6;75.9
72226;BME280;60130;52.250;5.048;2023-07-24T21:55:00;1007.6;;;14.6;76.0
72226;BME280;60130;52.250;5.048;2023-07-24T22:00:00;1007.5;;;14.5;76.3
72226;BME280;60130;52.250;5.048;2023-07-24T22:05:00;1007.5;;;14.5;76.6
72226;BME280;60130;52.250;5.048;2023-07-24T22:10:00;1007.6;;;14.4;77.1
72226;BME280;60130;52.250;5.048;2023-07-24T22:15:00;1007.6;;;14.4;77.5
72226;BME280;60130;52.250;5.048;2023-07-24T22:20:00;1007.6;;;14.4;77.5
72226;BME280;60130;52.250;5.048;2023-07-24T22:25:01;1007.6;;;14.4;77.5
72226;BME280;60130;52.250;5.048;2023-07-24T22:30:00;1007.6;;;14.4;77.8
72226;BME280;60130;52.250;5.048;2023-07-24T22:35:00;1007.6;;;14.4;77.5
72226;BME280;60130;52.250;5.048;2023-07-24T22:40:00;1007.6;;;14.3;77.9
72226;BME280;60130;52.250;5.048;2023-07-24T22:45:00;1007.6;;;14.2;78.6
72226;BME280;60130;52.250;5.048;2023-07-24T22:50:00;1007.7;;;14.1;79.0
72226;BME280;60130;52.250;5.048;2023-07-24T22:55:00;1007.7;;;14.1;79.2
72226;BME280;60130;52.250;5.048;2023-07-24T23:00:00;1007.7;;;14.0;78.4
72226;BME280;60130;52.250;5.048;2023-07-24T23:05:00;1007.6;;;13.9;77.8
72226;BME280;60130;52.250;5.048;2023-07-24T23:10:00;1007.6;;;13.8;79.8
72226;BME280;60130;52.250;5.048;2023-07-24T23:15:00;1007.5;;;13.9;79.7
72226;BME280;60130;52.250;5.048;2023-07-24T23:20:00;1007.5;;;13.8;78.8
72226;BME280;60130;52.250;5.048;2023-07-24T23:25:00;1007.6;;;13.8;79.7
72226;BME280;60130;52.250;5.048;2023-07-24T23:30:00;1007.6;;;13.7;80.5
72226;BME280;60130;52.250;5.048;2023-07-24T23:35:00;1007.6;;;13.7;80.7
72226;BME280;60130;52.250;5.048;2023-07-24T23:40:00;1007.6;;;13.6;80.6
72226;BME280;60130;52.250;5.048;2023-07-24T23:45:00;1007.6;;;13.5;80.5
72226;BME280;60130;52.250;5.048;2023-07-24T23:50:00;1007.7;;;13.4;80.1
72226;BME280;60130;52.250;5.048;2023-07-24T23:55:00;1007.7;;;13.3;80.6
